sensor_id;sensor_type;location;lat;lon;timestamp;temperature;humidity
15241;DHT22;7723;52.170;9.978;2023-04-16T00:02:13;9.00;99.90
15241;DHT22;7723;52.170;9.978;2023-04-16T00:04:41;9.00;99.90
15241;DHT22;7723;52.170;9.978;2023-04-16T00:07:08;9.00;99.90
15241;DHT22;7723;52.170;9.978;2023-04-16T00:09:36;10.00;99.90
15241;DHT22;7723;52.170;9.978;2023-04-16T00:12:07;8.90;99.90
15241;DHT22;7723;52.170;9.978;2023-04-16T00:14:34;8.90;99.90
15241;DHT22;7723;52.170;9.978;2023-04-16T00:17:01;8.90;99.90
15241;DHT22;7723;52.170;9.978;2023-04-16T00:19:28;8.90;99.90
15241;DHT22;7723;52.170;9.978;2023-04-16T00:21:55;8.80;99.90
15241;DHT22;7723;52.170;9.978;2023-04-16T00:24:22;8.90;99.90
15241;DHT22;7723;52.170;9.978;2023-04-16T00:26:49;8.80;99.90
15241;DHT22;7723;52.170;9.978;2023-04-16T00:29:18;8.80;99.90
15241;DHT22;7723;52.170;9.978;2023-04-16T00:31:45;8.80;99.90
15241;DHT22;7723;52.170;9.978;2023-04-16T00:34:12;8.70;99.90
15241;DHT22;7723;52.170;9.978;2023-04-16T00:36:39;8.70;99.90
15241;DHT22;7723;52.170;9.978;2023-04-16T00:39:06;8.70;99.90
15241;DHT22;7723;52.170;9.978;2023-04-16T00:41:33;8.70;99.90
15241;DHT22;7723;52.170;9.978;2023-04-16T00:44:00;8.70;99.90
15241;DHT22;7723;52.170;9.978;2023-04-16T00:46:29;8.60;99.90
15241;DHT22;7723;52.170;9.978;2023-04-16T00:48:58;8.70;99.90
15241;DHT22;7723;52.170;9.978;2023-04-16T00:51:26;8.60;99.90
15241;DHT22;7723;52.170;9.978;2023-04-16T00:53:53;8.60;99.90
15241;DHT22;7723;52.170;9.978;2023-04-16T00:56:21;8.60;99.90
15241;DHT22;7723;52.170;9.978;2023-04-16T00:58:48;8.50;99.90
15241;DHT22;7723;52.170;9.978;2023-04-16T01:01:16;8.50;99.90
15241;DHT22;7723;52.170;9.978;2023-04-16T01:03:46;8.60;99.90
15241;DHT22;7723;52.170;9.978;2023-04-16T01:06:13;8.50;99.90
15241;DHT22;7723;52.170;9.978;2023-04-16T01:08:42;8.50;99.90
15241;DHT22;7723;52.170;9.978;2023-04-16T01:11:10;8.50;99.90
15241;DHT22;7723;52.170;9.978;2023-04-16T01:13:37;8.50;99.90
15241;DHT22;7723;52.170;9.978;2023-04-16T01:16:07;8.50;99.90
15241;DHT22;7723;52.170;9.978;2023-04-16T01:18:34;8.50;99.90
15241;DHT22;7723;52.170;9.978;2023-04-16T01:21:04;8.50;99.90
15241;DHT22;7723;52.170;9.978;2023-04-16T01:23:31;8.50;99.90
15241;DHT22;7723;52.170;9.978;2023-04-16T01:25:58;8.50;99.90
15241;DHT22;7723;52.170;9.978;2023-04-16T01:28:25;8.50;99.90
15241;DHT22;7723;52.170;9.978;2023-04-16T01:30:53;8.50;99.90
15241;DHT22;7723;52.170;9.978;2023-04-16T01:33:21;8.50;99.90
15241;DHT22;7723;52.170;9.978;2023-04-16T01:35:48;8.50;99.90
15241;DHT22;7723;52.170;9.978;2023-04-16T01:38:16;8.60;99.90
15241;DHT22;7723;52.170;9.978;2023-04-16T01:40:43;8.60;99.90
15241;DHT22;7723;52.170;9.978;2023-04-16T01:43:11;8.50;99.90
15241;DHT22;7723;52.170;9.978;2023-04-16T01:45:38;8.60;99.90
15241;DHT22;7723;52.170;9.978;2023-04-16T01:48:05;8.60;99.90
15241;DHT22;7723;52.170;9.978;2023-04-16T01:50:32;8.60;99.90
15241;DHT22;7723;52.170;9.978;2023-04-16T01:53:00;8.60;99.90
15241;DHT22;7723;52.170;9.978;2023-04-16T01:55:31;8.60;99.90
15241;DHT22;7723;52.170;9.978;2023-04-16T01:57:58;8.50;99.90
15241;DHT22;7723;52.170;9.978;2023-04-16T02:00:27;8.50;99.90
15241;DHT22;7723;52.170;9.978;2023-04-16T02:02:54;8.50;99.90
15241;DHT22;7723;52.170;9.978;2023-04-16T02:05:21;8.50;99.90
15241;DHT22;7723;52.170;9.978;2023-04-16T02:07:48;8.50;99.90
15241;DHT22;7723;52.170;9.978;2023-04-16T02:10:15;8.50;99.90
15241;DHT22;7723;52.170;9.978;2023-04-16T02:12:44;8.40;99.90
15241;DHT22;7723;52.170;9.978;2023-04-16T02:15:11;8.40;99.90
15241;DHT22;7723;52.170;9.978;2023-04-16T02:17:38;8.40;99.90
15241;DHT22;7723;52.170;9.978;2023-04-16T02:20:06;8.40;99.90
15241;DHT22;7723;52.170;9.978;2023-04-16T02:22:34;8.40;99.90
15241;DHT22;7723;52.170;9.978;2023-04-16T02:25:02;8.30;99.90
15241;DHT22;7723;52.170;9.978;2023-04-16T02:27:29;8.30;99.90
15241;DHT22;7723;52.170;9.978;2023-04-16T02:29:57;8.30;99.90
15241;DHT22;7723;52.170;9.978;2023-04-16T02:32:24;8.30;99.90
15241;DHT22;7723;52.170;9.978;2023-04-16T02:34:51;8.20;99.90
15241;DHT22;7723;52.170;9.978;2023-04-16T02:37:19;8.20;99.90
15241;DHT22;7723;52.170;9.978;2023-04-16T02:39:46;8.10;99.90
15241;DHT22;7723;52.170;9.978;2023-04-16T02:42:14;8.10;99.90
15241;DHT22;7723;52.170;9.978;2023-04-16T02:44:41;8.10;99.90
15241;DHT22;7723;52.170;9.978;2023-04-16T02:47:10;8.10;99.90
15241;DHT22;7723;52.170;9.978;2023-04-16T02:49:37;8.10;99.90
15241;DHT22;7723;52.170;9.978;2023-04-16T02:52:04;8.00;99.90
15241;DHT22;7723;52.170;9.978;2023-04-16T02:54:31;8.00;99.90
15241;DHT22;7723;52.170;9.978;2023-04-16T02:56:58;8.00;99.90
15241;DHT22;7723;52.170;9.978;2023-04-16T02:59:26;8.00;99.90
15241;DHT22;7723;52.170;9.978;2023-04-16T03:01:54;8.00;99.90
15241;DHT22;7723;52.170;9.978;2023-04-16T03:04:22;7.90;99.90
15241;DHT22;7723;52.170;9.978;2023-04-16T03:06:49;7.90;99.90
15241;DHT22;7723;52.170;9.978;2023-04-16T03:09:16;7.90;99.90
15241;DHT22;7723;52.170;9.978;2023-04-16T03:11:43;7.90;99.90
15241;DHT22;7723;52.170;9.978;2023-04-16T03:14:10;7.90;99.90
15241;DHT22;7723;52.170;9.978;2023-04-16T03:16:38;7.90;99.90
15241;DHT22;7723;52.170;9.978;2023-04-16T03:19:05;7.90;99.90
15241;DHT22;7723;52.170;9.978;2023-04-16T03:21:33;7.90;99.90
15241;DHT22;7723;52.170;9.978;2023-04-16T03:24:00;7.90;99.90
15241;DHT22;7723;52.170;9.978;2023-04-16T03:26:27;7.90;99.90
15241;DHT22;7723;52.170;9.978;2023-04-16T03:28:54;7.80;99.90
15241;DHT22;7723;52.170;9.978;2023-04-16T03:31:23;7.80;99.90
15241;DHT22;7723;52.170;9.978;2023-04-16T03:33:50;7.80;99.90
15241;DHT22;7723;52.170;9.978;2023-04-16T03:36:17;7.80;99.90
15241;DHT22;7723;52.170;9.978;2023-04-16T03:38:46;7.70;99.90
15241;DHT22;7723;52.170;9.978;2023-04-16T03:41:13;7.70;99.90
15241;DHT22;7723;52.170;9.978;2023-04-16T03:43:40;7.80;99.90
15241;DHT22;7723;52.170;9.978;2023-04-16T03:46:07;7.70;99.90
15241;DHT22;7723;52.170;9.978;2023-04-16T03:48:34;7.70;99.90
15241;DHT22;7723;52.170;9.978;2023-04-16T03:51:02;7.70;99.90
15241;DHT22;7723;52.170;9.978;2023-04-16T03:53:29;7.60;99.90
15241;DHT22;7723;52.170;9.978;2023-04-16T03:55:57;7.60;99.90
15241;DHT22;7723;52.170;9.978;2023-04-16T03:58:25;7.60;99.90
15241;DHT22;7723;52.170;9.978;2023-04-16T04:00:52;7.60;99.90
15241;DHT22;7723;52.170;9.978;2023-04-16T04:03:20;7.50;99.90
15241;DHT22;7723;52.170;9.978;2023-04-16T04:05:47;7.60;99.90
15241;DHT22;7723;52.170;9.978;2023-04-16T04:08:14;7.50;99.90
15241;DHT22;7723;52.170;9.978;2023-04-16T04:10:41;7.50;99.90
15241;DHT22;7723;52.170;9.978;2023-04-16T04:13:10;7.50;99.90
15241;DHT22;7723;52.170;9.978;2023-04-16T04:15:38;7.60;99.90
15241;DHT22;7723;52.170;9.978;2023-04-16T04:18:05;7.60;99.90
15241;DHT22;7723;52.170;9.978;2023-04-16T04:20:32;7.60;99.90
15241;DHT22;7723;52.170;9.978;2023-04-16T04:22:59;7.50;99.90
15241;DHT22;7723;52.170;9.978;2023-04-16T04:25:26;7.60;99.90
15241;DHT22;7723;52.170;9.978;2023-04-16T04:27:53;7.60;99.90
15241;DHT22;7723;52.170;9.978;2023-04-16T04:30:22;7.60;99.90
15241;DHT22;7723;52.170;9.978;2023-04-16T04:32:49;7.60;99.90
15241;DHT22;7723;52.170;9.978;2023-04-16T04:35:16;7.60;99.90
15241;DHT22;7723;52.170;9.978;2023-04-16T04:37:43;7.50;99.90
15241;DHT22;7723;52.170;9.978;2023-04-16T04:40:11;7.40;99.90
15241;DHT22;7723;52.170;9.978;2023-04-16T04:42:38;7.40;99.90
15241;DHT22;7723;52.170;9.978;2023-04-16T04:45:06;7.40;99.90
15241;DHT22;7723;52.170;9.978;2023-04-16T04:47:34;7.40;99.90
15241;DHT22;7723;52.170;9.978;2023-04-16T04:50:02;7.40;99.90
15241;DHT22;7723;52.170;9.978;2023-04-16T04:52:29;7.40;99.90
15241;DHT22;7723;52.170;9.978;2023-04-16T04:54:56;7.40;99.90
15241;DHT22;7723;52.170;9.978;2023-04-16T04:57:23;7.40;99.90
15241;DHT22;7723;52.170;9.978;2023-04-16T04:59:50;7.30;99.90
15241;DHT22;7723;52.170;9.978;2023-04-16T05:02:17;7.30;99.90
15241;DHT22;7723;52.170;9.978;2023-04-16T05:04:46;7.30;99.90
15241;DHT22;7723;52.170;9.978;2023-04-16T05:07:13;7.30;99.90
15241;DHT22;7723;52.170;9.978;2023-04-16T05:09:40;7.40;99.90
15241;DHT22;7723;52.170;9.978;2023-04-16T05:12:07;7.40;99.90
15241;DHT22;7723;52.170;9.978;2023-04-16T05:14:34;7.40;99.90
15241;DHT22;7723;52.170;9.978;2023-04-16T05:17:02;7.40;99.90
15241;DHT22;7723;52.170;9.978;2023-04-16T05:19:29;7.40;99.90
15241;DHT22;7723;52.170;9.978;2023-04-16T05:21:58;7.40;99.90
15241;DHT22;7723;52.170;9.978;2023-04-16T05:24:27;7.40;99.90
15241;DHT22;7723;52.170;9.978;2023-04-16T05:26:55;7.40;99.90
15241;DHT22;7723;52.170;9.978;2023-04-16T05:29:23;7.40;99.90
15241;DHT22;7723;52.170;9.978;2023-04-16T05:31:50;7.40;99.90
15241;DHT22;7723;52.170;9.978;2023-04-16T05:34:17;7.40;99.90
15241;DHT22;7723;52.170;9.978;2023-04-16T05:36:44;7.40;99.90
15241;DHT22;7723;52.170;9.978;2023-04-16T05:39:13;7.40;99.90
15241;DHT22;7723;52.170;9.978;2023-04-16T05:41:40;7.40;99.90
15241;DHT22;7723;52.170;9.978;2023-04-16T05:44:07;7.40;99.90
15241;DHT22;7723;52.170;9.978;2023-04-16T05:46:34;7.40;99.90
15241;DHT22;7723;52.170;9.978;2023-04-16T05:49:01;7.40;99.90
15241;DHT22;7723;52.170;9.978;2023-04-16T05:51:28;7.40;99.90
15241;DHT22;7723;52.170;9.978;2023-04-16T05:53:56;7.40;99.90
15241;DHT22;7723;52.170;9.978;2023-04-16T05:56:25;7.40;99.90
15241;DHT22;7723;52.170;9.978;2023-04-16T05:58:52;7.40;99.90
15241;DHT22;7723;52.170;9.978;2023-04-16T06:01:21;7.50;99.90
15241;DHT22;7723;52.170;9.978;2023-04-16T06:03:48;7.50;99.90
15241;DHT22;7723;52.170;9.978;2023-04-16T06:06:15;7.50;99.90
15241;DHT22;7723;52.170;9.978;2023-04-16T06:08:42;7.50;99.90
15241;DHT22;7723;52.170;9.978;2023-04-16T06:11:09;7.50;99.90
15241;DHT22;7723;52.170;9.978;2023-04-16T06:13:38;7.50;99.90
15241;DHT22;7723;52.170;9.978;2023-04-16T06:16:06;7.50;99.90
15241;DHT22;7723;52.170;9.978;2023-04-16T06:18:33;7.50;99.90
15241;DHT22;7723;52.170;9.978;2023-04-16T06:21:00;7.50;99.90
15241;DHT22;7723;52.170;9.978;2023-04-16T06:23:27;7.50;99.90
15241;DHT22;7723;52.170;9.978;2023-04-16T06:25:54;6.60;99.90
15241;DHT22;7723;52.170;9.978;2023-04-16T06:28:21;7.50;99.90
15241;DHT22;7723;52.170;9.978;2023-04-16T06:30:51;7.60;99.90
15241;DHT22;7723;52.170;9.978;2023-04-16T06:33:18;7.50;99.90
15241;DHT22;7723;52.170;9.978;2023-04-16T06:35:45;7.50;99.90
15241;DHT22;7723;52.170;9.978;2023-04-16T06:38:12;7.60;99.90
15241;DHT22;7723;52.170;9.978;2023-04-16T06:40:40;7.50;99.90
15241;DHT22;7723;52.170;9.978;2023-04-16T06:43:07;7.50;99.90
15241;DHT22;7723;52.170;9.978;2023-04-16T06:45:34;7.50;99.90
15241;DHT22;7723;52.170;9.978;2023-04-16T06:48:03;7.50;99.90
15241;DHT22;7723;52.170;9.978;2023-04-16T06:50:30;7.60;99.90
15241;DHT22;7723;52.170;9.978;2023-04-16T06:52:57;7.60;99.90
15241;DHT22;7723;52.170;9.978;2023-04-16T06:55:24;7.60;99.90
15241;DHT22;7723;52.170;9.978;2023-04-16T06:57:51;7.60;99.90
15241;DHT22;7723;52.170;9.978;2023-04-16T07:00:18;7.70;99.90
15241;DHT22;7723;52.170;9.978;2023-04-16T07:02:45;7.80;99.90
15241;DHT22;7723;52.170;9.978;2023-04-16T07:05:14;7.80;99.90
15241;DHT22;7723;52.170;9.978;2023-04-16T07:07:41;7.80;99.90
15241;DHT22;7723;52.170;9.978;2023-04-16T07:10:09;7.80;99.90
15241;DHT22;7723;52.170;9.978;2023-04-16T07:12:39;7.90;99.90
15241;DHT22;7723;52.170;9.978;2023-04-16T07:15:07;7.90;99.90
15241;DHT22;7723;52.170;9.978;2023-04-16T07:17:35;7.80;99.90
15241;DHT22;7723;52.170;9.978;2023-04-16T07:20:02;7.80;99.90
15241;DHT22;7723;52.170;9.978;2023-04-16T07:22:31;7.90;99.90
15241;DHT22;7723;52.170;9.978;2023-04-16T07:24:58;7.80;99.90
15241;DHT22;7723;52.170;9.978;2023-04-16T07:27:25;7.90;99.90
15241;DHT22;7723;52.170;9.978;2023-04-16T07:29:52;7.90;99.90
15241;DHT22;7723;52.170;9.978;2023-04-16T07:32:20;8.00;99.90
15241;DHT22;7723;52.170;9.978;2023-04-16T07:34:48;7.90;99.90
15241;DHT22;7723;52.170;9.978;2023-04-16T07:37:15;8.00;99.90
15241;DHT22;7723;52.170;9.978;2023-04-16T07:39:43;8.00;99.90
15241;DHT22;7723;52.170;9.978;2023-04-16T07:42:10;8.10;99.90
15241;DHT22;7723;52.170;9.978;2023-04-16T07:44:38;8.10;99.90
15241;DHT22;7723;52.170;9.978;2023-04-16T07:47:05;8.10;99.90
15241;DHT22;7723;52.170;9.978;2023-04-16T07:49:33;8.10;99.90
15241;DHT22;7723;52.170;9.978;2023-04-16T07:52:00;8.10;99.90
15241;DHT22;7723;52.170;9.978;2023-04-16T07:54:27;8.20;99.90
15241;DHT22;7723;52.170;9.978;2023-04-16T07:56:56;8.10;99.90
15241;DHT22;7723;52.170;9.978;2023-04-16T07:59:23;8.20;99.90
15241;DHT22;7723;52.170;9.978;2023-04-16T08:01:52;8.20;99.90
15241;DHT22;7723;52.170;9.978;2023-04-16T08:04:19;8.20;99.90
15241;DHT22;7723;52.170;9.978;2023-04-16T08:06:49;8.10;99.90
15241;DHT22;7723;52.170;9.978;2023-04-16T08:09:17;8.20;99.90
15241;DHT22;7723;52.170;9.978;2023-04-16T08:11:44;8.10;99.90
15241;DHT22;7723;52.170;9.978;2023-04-16T08:14:15;8.10;99.90
15241;DHT22;7723;52.170;9.978;2023-04-16T08:16:42;8.20;99.90
15241;DHT22;7723;52.170;9.978;2023-04-16T08:19:10;8.10;99.90
15241;DHT22;7723;52.170;9.978;2023-04-16T08:21:37;8.10;99.90
15241;DHT22;7723;52.170;9.978;2023-04-16T08:24:04;8.10;99.90
15241;DHT22;7723;52.170;9.978;2023-04-16T08:26:31;8.10;99.90
15241;DHT22;7723;52.170;9.978;2023-04-16T08:28:58;8.10;99.90
15241;DHT22;7723;52.170;9.978;2023-04-16T08:31:27;8.10;99.90
15241;DHT22;7723;52.170;9.978;2023-04-16T08:33:54;8.20;99.90
15241;DHT22;7723;52.170;9.978;2023-04-16T08:36:21;8.20;99.90
15241;DHT22;7723;52.170;9.978;2023-04-16T08:38:48;8.10;99.90
15241;DHT22;7723;52.170;9.978;2023-04-16T08:41:16;8.10;99.90
15241;DHT22;7723;52.170;9.978;2023-04-16T08:43:44;8.20;99.90
15241;DHT22;7723;52.170;9.978;2023-04-16T08:46:16;8.20;99.90
15241;DHT22;7723;52.170;9.978;2023-04-16T08:48:48;8.30;99.90
15241;DHT22;7723;52.170;9.978;2023-04-16T08:51:16;8.30;99.90
15241;DHT22;7723;52.170;9.978;2023-04-16T08:53:48;8.20;99.90
15241;DHT22;7723;52.170;9.978;2023-04-16T08:56:20;8.20;99.90
15241;DHT22;7723;52.170;9.978;2023-04-16T08:58:50;8.20;99.90
15241;DHT22;7723;52.170;9.978;2023-04-16T09:01:18;8.10;99.90
15241;DHT22;7723;52.170;9.978;2023-04-16T09:03:56;8.20;99.90
15241;DHT22;7723;52.170;9.978;2023-04-16T09:06:26;8.30;99.90
15241;DHT22;7723;52.170;9.978;2023-04-16T09:08:54;8.10;99.90
15241;DHT22;7723;52.170;9.978;2023-04-16T09:11:23;8.30;99.90
15241;DHT22;7723;52.170;9.978;2023-04-16T09:13:52;8.30;99.90
15241;DHT22;7723;52.170;9.978;2023-04-16T09:16:19;8.30;99.90
15241;DHT22;7723;52.170;9.978;2023-04-16T09:18:47;8.30;99.90
15241;DHT22;7723;52.170;9.978;2023-04-16T09:21:15;8.40;99.90
15241;DHT22;7723;52.170;9.978;2023-04-16T09:23:43;8.40;99.90
15241;DHT22;7723;52.170;9.978;2023-04-16T09:26:10;8.50;99.90
15241;DHT22;7723;52.170;9.978;2023-04-16T09:28:41;8.80;99.90
15241;DHT22;7723;52.170;9.978;2023-04-16T09:31:10;8.50;99.90
15241;DHT22;7723;52.170;9.978;2023-04-16T09:33:38;8.60;99.90
15241;DHT22;7723;52.170;9.978;2023-04-16T09:36:06;8.50;99.90
15241;DHT22;7723;52.170;9.978;2023-04-16T09:38:50;8.50;99.90
15241;DHT22;7723;52.170;9.978;2023-04-16T09:41:25;8.60;99.90
15241;DHT22;7723;52.170;9.978;2023-04-16T09:44:01;8.70;99.90
15241;DHT22;7723;52.170;9.978;2023-04-16T09:46:32;8.70;99.90
15241;DHT22;7723;52.170;9.978;2023-04-16T09:49:14;8.80;99.90
15241;DHT22;7723;52.170;9.978;2023-04-16T09:51:42;8.80;99.90
15241;DHT22;7723;52.170;9.978;2023-04-16T09:54:11;8.90;99.90
15241;DHT22;7723;52.170;9.978;2023-04-16T09:56:40;8.90;99.90
15241;DHT22;7723;52.170;9.978;2023-04-16T09:59:08;8.80;99.90
15241;DHT22;7723;52.170;9.978;2023-04-16T10:01:35;8.80;99.90
15241;DHT22;7723;52.170;9.978;2023-04-16T10:04:06;8.80;99.90
15241;DHT22;7723;52.170;9.978;2023-04-16T10:06:35;8.80;99.90
15241;DHT22;7723;52.170;9.978;2023-04-16T10:09:06;8.90;99.90
15241;DHT22;7723;52.170;9.978;2023-04-16T10:11:34;8.90;99.90
15241;DHT22;7723;52.170;9.978;2023-04-16T10:14:02;8.90;99.90
15241;DHT22;7723;52.170;9.978;2023-04-16T10:16:29;9.00;99.90
15241;DHT22;7723;52.170;9.978;2023-04-16T10:18:57;8.90;99.90
15241;DHT22;7723;52.170;9.978;2023-04-16T10:21:25;8.90;99.90
15241;DHT22;7723;52.170;9.978;2023-04-16T10:23:58;8.90;99.90
15241;DHT22;7723;52.170;9.978;2023-04-16T10:26:26;8.90;99.90
15241;DHT22;7723;52.170;9.978;2023-04-16T10:28:57;9.00;99.90
15241;DHT22;7723;52.170;9.978;2023-04-16T10:31:25;9.00;99.90
15241;DHT22;7723;52.170;9.978;2023-04-16T10:33:53;9.10;99.90
15241;DHT22;7723;52.170;9.978;2023-04-16T10:36:23;9.10;99.90
15241;DHT22;7723;52.170;9.978;2023-04-16T10:38:51;9.00;99.90
15241;DHT22;7723;52.170;9.978;2023-04-16T10:41:19;9.00;99.90
15241;DHT22;7723;52.170;9.978;2023-04-16T10:43:49;9.00;99.90
15241;DHT22;7723;52.170;9.978;2023-04-16T10:46:21;8.90;99.90
15241;DHT22;7723;52.170;9.978;2023-04-16T10:48:51;8.80;99.90
15241;DHT22;7723;52.170;9.978;2023-04-16T10:51:26;8.80;99.90
15241;DHT22;7723;52.170;9.978;2023-04-16T10:53:55;8.80;99.90
15241;DHT22;7723;52.170;9.978;2023-04-16T10:56:24;8.80;99.90
15241;DHT22;7723;52.170;9.978;2023-04-16T10:58:52;8.80;99.90
15241;DHT22;7723;52.170;9.978;2023-04-16T11:01:29;8.80;99.90
15241;DHT22;7723;52.170;9.978;2023-04-16T11:03:58;8.80;99.90
15241;DHT22;7723;52.170;9.978;2023-04-16T11:06:27;8.80;99.90
15241;DHT22;7723;52.170;9.978;2023-04-16T11:08:56;8.70;99.90
15241;DHT22;7723;52.170;9.978;2023-04-16T11:11:26;8.70;99.90
15241;DHT22;7723;52.170;9.978;2023-04-16T11:13:55;8.60;99.90
15241;DHT22;7723;52.170;9.978;2023-04-16T11:16:24;8.50;99.90
15241;DHT22;7723;52.170;9.978;2023-04-16T11:18:53;8.50;99.90
15241;DHT22;7723;52.170;9.978;2023-04-16T11:21:21;8.50;99.90
15241;DHT22;7723;52.170;9.978;2023-04-16T11:23:51;8.50;99.90
15241;DHT22;7723;52.170;9.978;2023-04-16T11:26:23;8.40;99.90
15241;DHT22;7723;52.170;9.978;2023-04-16T11:28:50;8.40;99.90
15241;DHT22;7723;52.170;9.978;2023-04-16T11:31:18;8.50;99.90
15241;DHT22;7723;52.170;9.978;2023-04-16T11:33:46;8.50;99.90
15241;DHT22;7723;52.170;9.978;2023-04-16T11:36:14;8.50;99.90
15241;DHT22;7723;52.170;9.978;2023-04-16T11:38:41;8.60;99.90
15241;DHT22;7723;52.170;9.978;2023-04-16T11:41:08;8.60;99.90
15241;DHT22;7723;52.170;9.978;2023-04-16T11:43:36;8.60;99.90
15241;DHT22;7723;52.170;9.978;2023-04-16T11:46:04;8.70;99.90
15241;DHT22;7723;52.170;9.978;2023-04-16T11:48:50;8.70;99.90
15241;DHT22;7723;52.170;9.978;2023-04-16T11:51:18;8.80;99.90
15241;DHT22;7723;52.170;9.978;2023-04-16T11:53:48;8.80;99.90
15241;DHT22;7723;52.170;9.978;2023-04-16T11:56:24;8.70;99.90
15241;DHT22;7723;52.170;9.978;2023-04-16T11:59:11;8.70;99.90
15241;DHT22;7723;52.170;9.978;2023-04-16T12:01:40;8.70;99.90
15241;DHT22;7723;52.170;9.978;2023-04-16T12:04:12;8.70;99.90
15241;DHT22;7723;52.170;9.978;2023-04-16T12:06:40;8.70;99.90
15241;DHT22;7723;52.170;9.978;2023-04-16T12:09:23;8.80;99.90
15241;DHT22;7723;52.170;9.978;2023-04-16T12:11:50;8.90;99.90
15241;DHT22;7723;52.170;9.978;2023-04-16T12:14:17;9.00;99.90
15241;DHT22;7723;52.170;9.978;2023-04-16T12:16:45;9.00;99.90
15241;DHT22;7723;52.170;9.978;2023-04-16T12:19:13;9.00;99.90
15241;DHT22;7723;52.170;9.978;2023-04-16T12:21:42;9.10;99.90
15241;DHT22;7723;52.170;9.978;2023-04-16T12:24:12;9.10;99.90
15241;DHT22;7723;52.170;9.978;2023-04-16T12:26:42;9.20;99.90
15241;DHT22;7723;52.170;9.978;2023-04-16T12:29:18;9.20;99.90
15241;DHT22;7723;52.170;9.978;2023-04-16T12:31:46;9.10;99.90
15241;DHT22;7723;52.170;9.978;2023-04-16T12:34:17;9.20;99.90
15241;DHT22;7723;52.170;9.978;2023-04-16T12:36:45;9.10;99.90
15241;DHT22;7723;52.170;9.978;2023-04-16T12:39:13;9.10;99.90
15241;DHT22;7723;52.170;9.978;2023-04-16T12:41:42;9.10;99.90
15241;DHT22;7723;52.170;9.978;2023-04-16T12:44:14;9.20;99.90
15241;DHT22;7723;52.170;9.978;2023-04-16T12:46:43;9.30;99.90
15241;DHT22;7723;52.170;9.978;2023-04-16T12:49:12;9.20;99.90
15241;DHT22;7723;52.170;9.978;2023-04-16T12:51:41;9.20;99.90
15241;DHT22;7723;52.170;9.978;2023-04-16T12:54:19;9.30;99.90
15241;DHT22;7723;52.170;9.978;2023-04-16T12:56:47;9.30;99.90
15241;DHT22;7723;52.170;9.978;2023-04-16T12:59:16;9.30;99.90
15241;DHT22;7723;52.170;9.978;2023-04-16T13:01:44;9.30;99.90
15241;DHT22;7723;52.170;9.978;2023-04-16T13:04:16;9.30;99.90
15241;DHT22;7723;52.170;9.978;2023-04-16T13:06:47;9.40;99.90
15241;DHT22;7723;52.170;9.978;2023-04-16T13:09:16;9.40;99.90
15241;DHT22;7723;52.170;9.978;2023-04-16T13:11:45;9.40;99.90
15241;DHT22;7723;52.170;9.978;2023-04-16T13:14:14;9.40;99.90
15241;DHT22;7723;52.170;9.978;2023-04-16T13:16:42;9.50;99.90
15241;DHT22;7723;52.170;9.978;2023-04-16T13:19:14;9.50;99.90
15241;DHT22;7723;52.170;9.978;2023-04-16T13:21:48;9.60;99.90
15241;DHT22;7723;52.170;9.978;2023-04-16T13:24:20;9.60;99.90
15241;DHT22;7723;52.170;9.978;2023-04-16T13:26:49;9.60;99.90
15241;DHT22;7723;52.170;9.978;2023-04-16T13:29:17;9.70;99.90
15241;DHT22;7723;52.170;9.978;2023-04-16T13:31:51;9.80;99.90
15241;DHT22;7723;52.170;9.978;2023-04-16T13:34:20;9.70;99.90
15241;DHT22;7723;52.170;9.978;2023-04-16T13:36:51;9.80;99.90
15241;DHT22;7723;52.170;9.978;2023-04-16T13:39:20;9.70;99.90
15241;DHT22;7723;52.170;9.978;2023-04-16T13:41:47;9.80;99.90
15241;DHT22;7723;52.170;9.978;2023-04-16T13:44:16;9.80;99.90
15241;DHT22;7723;52.170;9.978;2023-04-16T13:46:43;9.90;99.90
15241;DHT22;7723;52.170;9.978;2023-04-16T13:49:13;10.60;99.90
15241;DHT22;7723;52.170;9.978;2023-04-16T13:51:43;10.10;99.90
15241;DHT22;7723;52.170;9.978;2023-04-16T13:54:13;10.20;99.90
15241;DHT22;7723;52.170;9.978;2023-04-16T13:56:43;10.40;99.90
15241;DHT22;7723;52.170;9.978;2023-04-16T13:59:12;10.30;99.90
15241;DHT22;7723;52.170;9.978;2023-04-16T14:01:42;10.30;99.90
15241;DHT22;7723;52.170;9.978;2023-04-16T14:04:09;10.40;99.90
15241;DHT22;7723;52.170;9.978;2023-04-16T14:06:37;10.40;99.90
15241;DHT22;7723;52.170;9.978;2023-04-16T14:09:04;10.50;99.90
15241;DHT22;7723;52.170;9.978;2023-04-16T14:11:33;10.60;99.90
15241;DHT22;7723;52.170;9.978;2023-04-16T14:14:00;10.60;99.90
15241;DHT22;7723;52.170;9.978;2023-04-16T14:16:27;10.60;99.90
15241;DHT22;7723;52.170;9.978;2023-04-16T14:18:54;10.50;99.90
15241;DHT22;7723;52.170;9.978;2023-04-16T14:21:21;10.70;99.90
15241;DHT22;7723;52.170;9.978;2023-04-16T14:23:48;10.80;99.90
15241;DHT22;7723;52.170;9.978;2023-04-16T14:26:15;10.90;99.90
15241;DHT22;7723;52.170;9.978;2023-04-16T14:28:44;10.90;99.90
15241;DHT22;7723;52.170;9.978;2023-04-16T14:31:11;11.10;99.90
15241;DHT22;7723;52.170;9.978;2023-04-16T14:33:38;11.20;99.90
15241;DHT22;7723;52.170;9.978;2023-04-16T14:36:06;11.40;99.90
15241;DHT22;7723;52.170;9.978;2023-04-16T14:38:33;11.40;99.90
15241;DHT22;7723;52.170;9.978;2023-04-16T14:41:00;11.50;99.90
15241;DHT22;7723;52.170;9.978;2023-04-16T14:43:27;11.60;99.90
15241;DHT22;7723;52.170;9.978;2023-04-16T14:45:56;11.70;99.90
15241;DHT22;7723;52.170;9.978;2023-04-16T14:48:24;11.90;99.90
15241;DHT22;7723;52.170;9.978;2023-04-16T14:50:52;11.70;99.90
15241;DHT22;7723;52.170;9.978;2023-04-16T14:53:22;11.70;99.90
15241;DHT22;7723;52.170;9.978;2023-04-16T14:55:50;11.80;99.90
15241;DHT22;7723;52.170;9.978;2023-04-16T14:58:17;11.70;99.90
15241;DHT22;7723;52.170;9.978;2023-04-16T15:00:44;11.50;99.90
15241;DHT22;7723;52.170;9.978;2023-04-16T15:03:13;11.50;99.90
15241;DHT22;7723;52.170;9.978;2023-04-16T15:05:40;11.40;99.90
15241;DHT22;7723;52.170;9.978;2023-04-16T15:08:07;11.40;99.90
15241;DHT22;7723;52.170;9.978;2023-04-16T15:10:34;11.50;99.90
15241;DHT22;7723;52.170;9.978;2023-04-16T15:13:02;11.50;99.90
15241;DHT22;7723;52.170;9.978;2023-04-16T15:15:29;11.50;99.90
15241;DHT22;7723;52.170;9.978;2023-04-16T15:17:56;11.50;99.90
15241;DHT22;7723;52.170;9.978;2023-04-16T15:20:26;11.50;99.90
15241;DHT22;7723;52.170;9.978;2023-04-16T15:22:53;11.30;99.90
15241;DHT22;7723;52.170;9.978;2023-04-16T15:25:20;11.30;99.90
15241;DHT22;7723;52.170;9.978;2023-04-16T15:27:48;11.30;99.90
15241;DHT22;7723;52.170;9.978;2023-04-16T15:30:15;11.20;99.90
15241;DHT22;7723;52.170;9.978;2023-04-16T15:32:43;11.20;99.90
15241;DHT22;7723;52.170;9.978;2023-04-16T15:35:10;11.20;99.90
15241;DHT22;7723;52.170;9.978;2023-04-16T15:37:39;11.30;99.90
15241;DHT22;7723;52.170;9.978;2023-04-16T15:40:07;11.20;99.90
15241;DHT22;7723;52.170;9.978;2023-04-16T15:42:34;11.20;99.90
15241;DHT22;7723;52.170;9.978;2023-04-16T15:45:01;11.30;99.90
15241;DHT22;7723;52.170;9.978;2023-04-16T15:47:28;11.40;99.90
15241;DHT22;7723;52.170;9.978;2023-04-16T15:49:55;11.40;99.90
15241;DHT22;7723;52.170;9.978;2023-04-16T15:52:22;11.40;99.90
15241;DHT22;7723;52.170;9.978;2023-04-16T15:54:51;11.30;99.90
15241;DHT22;7723;52.170;9.978;2023-04-16T15:57:18;11.40;99.90
15241;DHT22;7723;52.170;9.978;2023-04-16T15:59:45;11.40;99.90
15241;DHT22;7723;52.170;9.978;2023-04-16T16:02:12;11.50;99.90
15241;DHT22;7723;52.170;9.978;2023-04-16T16:04:39;11.60;99.90
15241;DHT22;7723;52.170;9.978;2023-04-16T16:07:10;11.60;99.90